CST,Max TemperatureF,Mean TemperatureF,Min TemperatureF,Max Dew PointF,MeanDew PointF,Min DewpointF,Max Humidity, Mean Humidity, Min Humidity, Max Sea Level PressureIn, Mean Sea Level PressureIn, Min Sea Level PressureIn, Max VisibilityMiles, Mean VisibilityMiles, Min VisibilityMiles, Max Wind SpeedMPH, Mean Wind SpeedMPH, Max Gust SpeedMPH,PrecipitationIn, CloudCover, Events, WindDirDegrees
2013-1-1,30,26,19,23,21,18,93,85,69,30.30,30.23,30.11,10,10,7,14,9,21,0.00,7,,315
2013-1-2,37,28,19,28,22,16,93,81,60,30.33,30.25,30.20,10,10,10,16,9,21,0.00,1,,262
2013-1-3,37,29,21,23,20,16,93,73,48,30.49,30.41,30.33,10,10,10,15,7,17,0.00,0,,297
2013-1-4,48,34,21,30,24,18,86,67,37,30.40,30.30,30.19,10,10,10,22,11,28,0.00,4,,211
2013-1-5,42,35,28,30,26,18,93,72,36,30.36,30.21,30.12,10,10,10,16,11,21,0.00,1,,243
2013-1-6,53,38,23,28,23,19,93,63,26,30.43,30.34,30.24,10,10,10,15,8,20,0.00,0,,217
2013-1-7,53,42,32,27,24,23,69,52,30,30.24,30.12,30.00,10,10,10,21,12,30,0.00,0,,194
2013-1-8,62,48,32,32,29,27,87,60,29,30.21,30.02,29.94,10,10,10,21,13,26,0.00,0,,233
2013-1-9,51,40,28,37,30,27,93,72,41,30.40,30.28,30.18,10,10,5,17,8,21,0.03,4,Rain,6
2013-1-10,46,42,37,45,41,37,100,94,87,30.16,29.90,29.73,10,6,0,18,8,25,0.25,6,Fog-Rain,178
2013-1-11,62,52,41,43,35,18,93,58,34,29.87,29.68,29.56,10,10,10,26,18,36,0.00,0,,217
2013-1-12,37,28,19,30,20,10,93,72,44,30.12,30.03,29.87,10,9,1,21,11,25,0.00,6,Snow,355
2013-1-13,28,19,10,14,10,5,86,66,47,30.33,30.25,30.12,10,10,10,13,6,,0.00,0,,345
2013-1-14,32,24,15,16,12,9,79,58,41,30.40,30.32,30.27,10,10,10,12,5,16,0.00,3,,83
2013-1-15,35,26,17,19,15,12,86,65,41,30.29,30.24,30.20,10,10,10,8,3,,0.00,1,,278
2013-1-16,53,37,21,32,25,18,93,69,41,30.31,30.18,30.12,10,10,10,14,8,20,0.00,1,,269
2013-1-17,55,42,28,30,28,25,93,65,33,30.55,30.45,30.32,10,10,10,12,6,,0.00,0,,260
2013-1-18,62,50,37,32,30,28,75,51,27,30.43,30.25,30.10,10,10,10,28,15,34,0.00,0,,200
2013-1-19,62,47,32,32,25,19,87,50,19,30.27,30.16,30.05,10,10,10,14,10,20,0.00,0,,287
2013-1-20,60,43,26,30,25,19,87,57,23,30.35,30.22,30.11,10,10,10,16,7,24,0.00,0,,158
2013-1-21,44,30,17,19,17,12,86,60,33,30.43,30.32,30.20,10,10,10,10,6,,0.00,0,,174
2013-1-22,59,44,28,28,24,19,75,54,29,30.23,30.17,30.12,10,10,10,14,7,,0.00,0,,188
2013-1-23,68,47,26,34,29,23,86,61,26,30.25,30.18,30.10,10,10,10,14,5,,0.00,0,,137
2013-1-24,37,32,26,28,21,18,86,69,60,30.30,30.21,30.11,10,10,10,15,9,21,0.00,4,,60
2013-1-25,53,38,23,28,26,21,93,66,35,30.27,30.20,30.12,10,10,7,9,4,,0.00,0,,136
2013-1-26,55,44,32,37,31,27,81,63,41,30.21,30.09,29.95,10,10,10,16,7,18,0.00,2,Rain,147
2013-1-27,78,62,46,52,41,30,94,58,17,29.96,29.82,29.73,10,8,2,29,18,36,0.00,4,,200
2013-1-28,73,60,48,48,37,32,58,41,25,29.86,29.77,29.68,10,10,10,26,14,33,0.00,1,,201
2013-1-29,59,46,33,37,33,30,87,67,34,29.75,29.65,29.56,10,10,10,21,11,28,0.00,7,Rain,316
2013-1-30,44,36,28,28,18,5,87,55,20,30.04,29.97,29.77,10,10,10,22,16,31,0.00,2,,290
2013-1-31,51,37,23,27,20,14,74,55,30,30.39,30.16,30.00,10,10,10,20,11,26,0.00,0,,86